Bald Head Island, North Carolina
Current Conditions -  °F | °C
As of 7:35 AM on Friday 31 Oct 2014 (Local Time) from KSUT Reporting Station
Clear Clear  
Wind Chill: 52°   Ceiling: Unl
Heat Index: 52°   Visibility: 10mi
Dew Point: 47°   Wind: 7mph
Humidity: 85%   Direction: 10°N
Pressure: 29.88"   Gusts: NA
Location:  34.0734°N, 78.0547°W
Report Text: KSUT 311135Z AUTO 01006KT 10SM CLR 11/09 A2988 RMK AO2 T01100085
Loading
Personal Weather Stations






























Interactive Weather Map
Tropical Storm Tracking
New forecast layout! Learn more

10-Day Weather Forecast

Advertisements
Track Severe Weather on mobile